Time;durP1;ratioP1;P1;durP2;ratioP2;P2;SDS_P1;SDS_P2;PMS_P1;PMS_P2;Temp;Humidity;BMP_temperature;BMP_pressure;BME280_temperature;BME280_humidity;BME280_pressure;Samples;Min_cycle;Max_cycle;Signal;HPM_P1;HPM_P2
2024/01/27 05:31:59;;;;;;;0.10;0.10;;;4.50;80.10;;;;;;5231850;23;20057;-79
2024/01/27 05:34:24;;;;;;;0.20;0.20;;;4.40;80.20;;;;;;4990279;28;20553;-79
2024/01/27 05:36:50;;;;;;;0.17;0.17;;;4.40;79.90;;;;;;4995605;28;20034;-79
2024/01/27 05:39:15;;;;;;;0.20;0.20;;;4.40;79.80;;;;;;4996656;28;20490;-78
2024/01/27 05:41:41;;;;;;;0.10;0.10;;;4.30;79.80;;;;;;4991244;28;20027;-79
2024/01/27 05:44:07;;;;;;;0.15;0.15;;;4.30;79.80;;;;;;4977242;28;20019;-78
2024/01/27 05:46:32;;;;;;;0.10;0.10;;;4.30;79.90;;;;;;4976519;28;20027;-79
2024/01/27 05:49:02;;;;;;;0.10;0.10;;;4.30;80.10;;;;;;4982403;28;20390;-78
2024/01/27 05:51:29;;;;;;;0.10;0.10;;;4.30;80.10;;;;;;4996848;28;20086;-78
2024/01/27 05:53:54;;;;;;;0.20;0.20;;;4.30;80.40;;;;;;4989993;28;20023;-79
2024/01/27 05:56:20;;;;;;;0.20;0.20;;;4.30;80.10;;;;;;4977106;28;20027;-78
2024/01/27 05:58:46;;;;;;;0.20;0.20;;;4.30;79.90;;;;;;4976673;28;20027;-78
2024/01/27 06:01:12;;;;;;;0.10;0.10;;;4.30;80.00;;;;;;4978824;28;20061;-78
2024/01/27 06:03:42;;;;;;;0.10;0.10;;;4.30;79.70;;;;;;4995162;28;20037;-78
2024/01/27 06:06:08;;;;;;;0.10;0.10;;;4.30;79.70;;;;;;4995211;28;20019;-79
2024/01/27 06:08:33;;;;;;;0.20;0.20;;;4.30;79.50;;;;;;4991314;28;20471;-78
2024/01/27 06:10:59;;;;;;;0.20;0.20;;;4.30;79.50;;;;;;4976682;28;20398;-78
2024/01/27 06:13:25;;;;;;;0.10;0.10;;;4.30;79.40;;;;;;4975923;28;20023;-78
2024/01/27 06:15:51;;;;;;;0.10;0.10;;;4.30;79.60;;;;;;4976427;28;21075;-78
2024/01/27 06:18:16;;;;;;;0.20;0.20;;;4.30;80.00;;;;;;4977071;28;20031;-78
2024/01/27 06:20:42;;;;;;;0.10;0.10;;;4.30;79.90;;;;;;4975869;28;20026;-78
2024/01/27 06:23:08;;;;;;;0.10;0.10;;;4.30;79.90;;;;;;4976740;28;20554;-78
2024/01/27 06:25:34;;;;;;;0.10;0.10;;;4.30;79.90;;;;;;4987398;28;20026;-78
2024/01/27 06:27:59;;;;;;;0.20;0.20;;;4.30;79.80;;;;;;4996172;28;20030;-78
2024/01/27 06:30:25;;;;;;;0.10;0.10;;;4.30;79.70;;;;;;4996156;28;20031;-78
2024/01/27 06:32:51;;;;;;;0.10;0.10;;;4.30;79.60;;;;;;4980821;28;20054;-78
2024/01/27 06:35:17;;;;;;;0.20;0.20;;;4.30;79.80;;;;;;4995013;28;20018;-78
2024/01/27 06:37:42;;;;;;;0.10;0.10;;;4.20;80.00;;;;;;4990633;28;20550;-78
2024/01/27 06:40:11;;;;;;;0.20;0.20;;;4.30;80.30;;;;;;4981954;28;20030;-78
2024/01/27 06:42:37;;;;;;;0.10;0.10;;;4.30;80.30;;;;;;4999787;28;20022;-78
2024/01/27 06:45:03;;;;;;;0.10;0.10;;;4.30;80.00;;;;;;4997486;28;20034;-78
2024/01/27 06:47:29;;;;;;;0.20;0.20;;;4.30;80.20;;;;;;4985224;28;20033;-78
2024/01/27 06:49:55;;;;;;;0.10;0.10;;;4.20;80.10;;;;;;4998713;28;20030;-78
2024/01/27 06:52:21;;;;;;;0.10;0.10;;;4.30;79.90;;;;;;4999554;28;20041;-78
2024/01/27 06:54:46;;;;;;;0.10;0.10;;;4.30;79.90;;;;;;4992367;28;20101;-78
2024/01/27 06:57:22;;;;;;;0.10;0.10;;;4.30;80.20;;;;;;4995251;28;20023;-78
2024/01/27 06:59:55;;;;;;;0.15;0.15;;;4.30;80.10;;;;;;4985037;28;20391;-78
2024/01/27 07:02:26;;;;;;;0.10;0.10;;;4.40;80.10;;;;;;4995855;28;20018;-78
2024/01/27 07:04:52;;;;;;;0.10;0.10;;;4.40;79.30;;;;;;4996849;28;20091;-78
2024/01/27 07:07:18;;;;;;;0.10;0.10;;;4.40;79.50;;;;;;4998444;28;20018;-78
2024/01/27 07:09:44;;;;;;;0.10;0.10;;;4.40;79.40;;;;;;4999292;28;20034;-78
2024/01/27 07:12:09;;;;;;;0.10;0.10;;;4.40;78.90;;;;;;4980741;28;20503;-76
2024/01/27 07:14:36;;;;;;;0.10;0.10;;;4.50;79.10;;;;;;4985936;28;20041;-76
2024/01/27 07:17:03;;;;;;;0.17;0.17;;;4.50;79.00;;;;;;4996661;28;20031;-82
2024/01/27 07:19:29;;;;;;;0.10;0.10;;;4.50;79.00;;;;;;4993911;28;20086;-79
2024/01/27 07:21:54;;;;;;;0.10;0.10;;;4.50;79.20;;;;;;4979493;28;20229;-80
2024/01/27 07:24:20;;;;;;;0.10;0.10;;;4.50;78.80;;;;;;4996958;28;20023;-79
2024/01/27 07:26:46;;;;;;;0.20;0.20;;;4.60;78.30;;;;;;4999007;28;20026;-81
2024/01/27 07:29:11;;;;;;;0.10;0.10;;;4.60;78.20;;;;;;4998531;28;20100;-79
2024/01/27 07:31:37;;;;;;;0.13;0.13;;;4.60;77.70;;;;;;4996214;28;20108;-81
2024/01/27 07:34:06;;;;;;;0.10;0.10;;;4.60;77.80;;;;;;4990536;28;20491;-78
2024/01/27 07:36:32;;;;;;;0.20;0.20;;;4.60;77.50;;;;;;4997859;28;20482;-79
2024/01/27 07:39:00;;;;;;;0.10;0.10;;;4.60;77.50;;;;;;4986424;28;20061;-80
2024/01/27 07:41:25;;;;;;;0.20;0.20;;;4.70;77.50;;;;;;4998034;28;20413;-78
2024/01/27 07:43:51;;;;;;;0.10;0.10;;;4.70;77.40;;;;;;4995218;28;20022;-78
2024/01/27 07:46:19;;;;;;;0.20;0.20;;;4.70;77.30;;;;;;4993405;28;20037;-78
2024/01/27 07:48:45;;;;;;;0.10;0.10;;;4.70;77.30;;;;;;4995135;28;20030;-77
2024/01/27 07:51:11;;;;;;;0.10;0.10;;;4.60;77.30;;;;;;4997059;28;20077;-79
2024/01/27 07:53:36;;;;;;;0.20;0.20;;;4.60;77.20;;;;;;4996643;28;20050;-77
2024/01/27 07:56:02;;;;;;;0.10;0.10;;;4.60;77.20;;;;;;4983007;28;20023;-77
2024/01/27 07:58:28;;;;;;;0.15;0.15;;;4.60;77.30;;;;;;4977296;28;20113;-77
2024/01/27 08:00:54;;;;;;;0.17;0.17;;;4.70;77.30;;;;;;4990654;28;20026;-77
2024/01/27 08:03:19;;;;;;;0.10;0.10;;;4.70;77.20;;;;;;4998032;28;20027;-76
2024/01/27 08:05:45;;;;;;;0.10;0.10;;;4.70;77.20;;;;;;5006848;28;20649;-76
2024/01/27 08:08:11;;;;;;;0.20;0.20;;;4.70;77.20;;;;;;5016571;28;20029;-76
2024/01/27 08:10:37;;;;;;;0.20;0.20;;;4.70;77.20;;;;;;4996505;28;20503;-77
2024/01/27 08:13:02;;;;;;;0.20;0.20;;;4.70;77.10;;;;;;4995443;28;20023;-76
2024/01/27 08:15:28;;;;;;;0.20;0.20;;;4.80;77.10;;;;;;4986824;28;20106;-76
2024/01/27 08:17:53;;;;;;;0.20;0.20;;;4.80;77.00;;;;;;4978241;28;20437;-76
2024/01/27 08:20:19;;;;;;;0.10;0.10;;;4.80;77.00;;;;;;4978645;28;20025;-77
2024/01/27 08:22:45;;;;;;;0.15;0.15;;;4.80;77.10;;;;;;4978430;28;20035;-77
2024/01/27 08:25:11;;;;;;;0.20;0.20;;;4.80;77.00;;;;;;4985471;28;20363;-76
2024/01/27 08:27:37;;;;;;;0.20;0.20;;;4.90;77.00;;;;;;4997755;28;20022;-80
2024/01/27 08:30:02;;;;;;;0.20;0.20;;;5.00;76.90;;;;;;4979573;28;20073;-77
2024/01/27 08:32:28;;;;;;;0.20;0.20;;;5.00;76.90;;;;;;4985508;28;20058;-76
2024/01/27 08:34:54;;;;;;;0.20;0.20;;;5.10;76.70;;;;;;4993118;28;20122;-76
2024/01/27 08:37:20;;;;;;;0.20;0.20;;;5.20;76.40;;;;;;4996811;28;20022;-77
2024/01/27 08:39:46;;;;;;;0.10;0.10;;;5.20;76.20;;;;;;4994518;28;20034;-76
2024/01/27 08:42:12;;;;;;;0.20;0.20;;;5.20;76.10;;;;;;4997140;28;20105;-77
2024/01/27 08:44:38;;;;;;;0.20;0.20;;;5.30;76.00;;;;;;4994757;28;20069;-77
2024/01/27 08:47:05;;;;;;;0.10;0.10;;;5.30;75.90;;;;;;4998344;28;20025;-76
2024/01/27 08:49:30;;;;;;;0.20;0.20;;;5.40;76.00;;;;;;4994289;28;20038;-78
2024/01/27 08:51:56;;;;;;;0.20;0.20;;;5.40;75.90;;;;;;4994966;28;20088;-76
2024/01/27 08:54:22;;;;;;;0.20;0.20;;;5.50;75.90;;;;;;4997167;28;20497;-76
2024/01/27 08:56:48;;;;;;;0.13;0.13;;;5.50;75.60;;;;;;4990845;28;20454;-76
2024/01/27 08:59:14;;;;;;;0.20;0.20;;;5.60;75.20;;;;;;4986319;28;20038;-76
2024/01/27 09:01:39;;;;;;;0.20;0.20;;;5.60;75.20;;;;;;4992510;28;20061;-77
2024/01/27 09:04:05;;;;;;;0.20;0.20;;;5.60;75.10;;;;;;4994545;28;20508;-77
2024/01/27 09:06:31;;;;;;;0.20;0.20;;;5.70;75.00;;;;;;4996185;28;20418;-80
2024/01/27 09:08:57;;;;;;;0.20;0.20;;;5.70;75.00;;;;;;4994155;28;20084;-76
2024/01/27 09:11:23;;;;;;;0.10;0.10;;;5.80;75.00;;;;;;4995733;28;20686;-77
2024/01/27 09:13:51;;;;;;;0.20;0.20;;;5.80;74.70;;;;;;4994961;28;20026;-76
2024/01/27 09:16:17;;;;;;;0.20;0.20;;;5.90;74.70;;;;;;4995849;28;20040;-77
2024/01/27 09:18:43;;;;;;;0.30;0.30;;;5.90;74.30;;;;;;4996445;28;20034;-77
2024/01/27 09:21:12;;;;;;;0.20;0.20;;;6.10;73.90;;;;;;4994143;28;20088;-77
2024/01/27 09:23:38;;;;;;;0.30;0.30;;;6.20;73.80;;;;;;4996595;28;20121;-77
2024/01/27 09:26:05;;;;;;;0.30;0.30;;;6.20;73.40;;;;;;4995562;28;20034;-77
2024/01/27 09:28:31;;;;;;;0.40;0.40;;;6.40;73.10;;;;;;4994974;28;20033;-78
2024/01/27 09:30:56;;;;;;;0.50;0.50;;;6.70;72.30;;;;;;4995071;28;20038;-77
2024/01/27 09:33:23;;;;;;;1.92;1.83;;;7.20;71.50;;;;;;4993713;28;20026;-77
2024/01/27 09:35:49;;;;;;;2.80;2.60;;;7.70;70.00;;;;;;4993844;28;20046;-78
2024/01/27 09:38:15;;;;;;;3.40;3.20;;;8.10;68.80;;;;;;4996202;28;20478;-77
2024/01/27 09:40:41;;;;;;;2.90;2.70;;;8.50;67.50;;;;;;4987215;28;20023;-85
2024/01/27 09:43:11;;;;;;;3.90;3.60;;;8.70;66.40;;;;;;4992743;28;20033;-79
2024/01/27 09:45:37;;;;;;;3.10;2.90;;;8.80;66.00;;;;;;4995796;28;20026;-80
2024/01/27 09:48:05;;;;;;;3.00;2.80;;;8.80;65.30;;;;;;4993714;28;20030;-81
2024/01/27 09:50:30;;;;;;;2.10;2.00;;;8.80;65.00;;;;;;4993643;28;20033;-82
2024/01/27 09:52:56;;;;;;;1.40;1.30;;;8.50;65.50;;;;;;4995781;28;20026;-83
2024/01/27 09:55:22;;;;;;;1.60;1.50;;;8.30;66.50;;;;;;4993446;28;20022;-80
2024/01/27 09:57:48;;;;;;;2.10;2.00;;;8.20;67.10;;;;;;4991936;28;20426;-78
2024/01/27 10:00:18;;;;;;;1.00;1.00;;;8.00;67.40;;;;;;4994244;28;20386;-82
2024/01/27 10:02:46;;;;;;;0.20;0.20;;;7.90;67.90;;;;;;4993327;28;20053;-79
2024/01/27 10:05:13;;;;;;;0.20;0.20;;;7.80;68.10;;;;;;4995967;28;20382;-79
2024/01/27 10:07:41;;;;;;;0.20;0.20;;;7.80;68.70;;;;;;4987792;28;20501;-90
2024/01/27 10:10:07;;;;;;;0.20;0.20;;;7.60;69.00;;;;;;4988029;28;20030;-81
2024/01/27 10:12:41;;;;;;;0.20;0.20;;;7.60;69.50;;;;;;4993936;28;20026;-80
2024/01/27 10:15:06;;;;;;;;;;;7.50;69.50;;;;;;4994073;28;20110;-82
2024/01/27 10:17:37;;;;;;;0.20;0.20;;;7.50;69.70;;;;;;4993764;28;19957;-77
2024/01/27 10:20:04;;;;;;;0.20;0.20;;;7.40;70.40;;;;;;4993846;28;20030;-87
2024/01/27 10:22:40;;;;;;;0.20;0.20;;;7.40;70.10;;;;;;4994360;28;20018;-77
2024/01/27 10:25:08;;;;;;;0.20;0.20;;;7.40;70.60;;;;;;5014127;28;20093;-89
2024/01/27 10:27:34;;;;;;;0.20;0.20;;;7.40;70.70;;;;;;4995071;28;20018;-87
2024/01/27 10:29:59;;;;;;;0.20;0.20;;;7.50;70.60;;;;;;4994941;28;20042;-90
2024/01/27 10:32:25;;;;;;;0.20;0.20;;;7.50;70.70;;;;;;4985278;28;20464;-90
2024/01/27 10:35:09;;;;;;;0.20;0.20;;;7.50;71.00;;;;;;4999000;28;20027;-89
2024/01/27 10:37:35;;;;;;;0.20;0.20;;;7.50;71.00;;;;;;4997876;28;20018;-89
2024/01/27 10:40:09;;;;;;;0.20;0.20;;;7.50;71.30;;;;;;4994084;28;20083;-89
2024/01/27 10:42:37;;;;;;;0.20;0.20;;;7.50;71.40;;;;;;4993988;28;20015;-88
2024/01/27 10:45:04;;;;;;;0.20;0.20;;;7.40;71.30;;;;;;4996675;28;20161;-88
2024/01/27 10:47:32;;;;;;;0.10;0.10;;;7.50;71.10;;;;;;4995162;28;20558;-89
2024/01/27 10:49:59;;;;;;;0.20;0.20;;;7.50;70.80;;;;;;4981306;28;20038;-90
2024/01/27 10:52:32;;;;;;;0.15;0.15;;;7.50;71.40;;;;;;4979861;28;20038;-91
2024/01/27 10:55:06;;;;;;;0.20;0.20;;;7.50;71.10;;;;;;4994385;28;20100;-90
2024/01/27 10:57:34;;;;;;;0.20;0.20;;;7.50;70.60;;;;;;4995786;28;20037;-90
2024/01/27 11:00:06;;;;;;;0.20;0.20;;;7.70;70.70;;;;;;4994728;28;20026;-92
2024/01/27 11:02:35;;;;;;;0.20;0.20;;;7.80;70.70;;;;;;4988370;28;20510;-87
2024/01/27 11:05:03;;;;;;;0.20;0.20;;;7.80;70.20;;;;;;4997069;28;20030;-82
2024/01/27 11:07:32;;;;;;;0.20;0.20;;;7.90;70.00;;;;;;4989877;28;20206;-83
2024/01/27 11:09:58;;;;;;;0.20;0.20;;;8.10;69.80;;;;;;4988442;28;20531;-84
2024/01/27 11:12:25;;;;;;;0.20;0.20;;;8.30;69.40;;;;;;4990850;28;20061;-83
2024/01/27 11:14:51;;;;;;;0.10;0.10;;;8.30;69.00;;;;;;4995453;28;20094;-82
2024/01/27 11:17:17;;;;;;;0.20;0.20;;;8.50;69.30;;;;;;4992425;28;20035;-88
2024/01/27 11:19:44;;;;;;;0.20;0.20;;;8.60;69.00;;;;;;4998075;28;20037;-90
2024/01/27 11:22:27;;;;;;;0.10;0.10;;;8.70;69.40;;;;;;5010424;28;20030;-87
2024/01/27 11:25:09;;;;;;;0.20;0.20;;;8.80;69.00;;;;;;4994285;28;20078;-86
2024/01/27 11:27:36;;;;;;;0.20;0.20;;;8.80;68.20;;;;;;4990392;28;20031;-86
2024/01/27 11:30:02;;;;;;;0.20;0.20;;;8.90;69.10;;;;;;4978295;28;20570;-87
2024/01/27 11:32:27;;;;;;;0.20;0.20;;;9.00;68.00;;;;;;4988740;28;20050;-87
2024/01/27 11:34:53;;;;;;;0.20;0.20;;;9.00;66.90;;;;;;4999034;28;20081;-87
2024/01/27 11:37:24;;;;;;;0.10;0.10;;;9.00;66.70;;;;;;4993844;28;20038;-88
2024/01/27 11:39:51;;;;;;;0.17;0.17;;;9.10;67.00;;;;;;4997610;28;20445;-88
2024/01/27 11:42:17;;;;;;;0.10;0.10;;;9.10;67.50;;;;;;4994062;28;20037;-89
2024/01/27 11:44:44;;;;;;;0.10;0.10;;;9.10;66.80;;;;;;4992094;28;20022;-88
2024/01/27 11:47:18;;;;;;;0.15;0.15;;;9.10;66.70;;;;;;4998663;28;20050;-88
2024/01/27 11:49:55;;;;;;;0.20;0.20;;;9.20;67.00;;;;;;4995218;28;20030;-87
2024/01/27 11:52:21;;;;;;;0.20;0.20;;;9.20;66.50;;;;;;4994358;28;20030;-88
2024/01/27 11:55:02;;;;;;;0.10;0.10;;;9.20;67.70;;;;;;4994383;28;20034;-88
2024/01/27 11:57:28;;;;;;;0.20;0.20;;;9.20;67.10;;;;;;4988993;28;20031;-88
2024/01/27 11:59:54;;;;;;;0.10;0.10;;;9.40;67.60;;;;;;4994824;28;20623;-87
2024/01/27 12:02:20;;;;;;;0.10;0.10;;;9.40;67.30;;;;;;4997745;28;20042;-88
2024/01/27 12:04:47;;;;;;;0.20;0.20;;;9.40;66.80;;;;;;4993556;28;20027;-89
2024/01/27 12:07:14;;;;;;;0.10;0.10;;;9.40;67.30;;;;;;4997141;28;20069;-87
2024/01/27 12:09:40;;;;;;;0.20;0.20;;;9.40;67.10;;;;;;4990430;28;20483;-87
2024/01/27 12:12:06;;;;;;;0.10;0.10;;;9.40;66.40;;;;;;4997688;28;20030;-89
2024/01/27 12:14:40;;;;;;;0.13;0.13;;;9.50;66.90;;;;;;4993308;28;20053;-88
2024/01/27 12:17:10;;;;;;;0.10;0.10;;;9.50;66.70;;;;;;4988704;28;20104;-88
2024/01/27 12:20:17;;;;;;;0.10;0.10;;;9.70;66.50;;;;;;4994276;28;20395;-90
2024/01/27 12:22:46;;;;;;;0.20;0.20;;;9.80;67.10;;;;;;4941024;29;20034;-88
2024/01/27 12:25:15;;;;;;;0.10;0.10;;;9.80;65.80;;;;;;4988417;28;20031;-82
2024/01/27 12:27:41;;;;;;;0.10;0.10;;;9.80;65.90;;;;;;4995646;28;20030;-80
2024/01/27 12:30:07;;;;;;;0.10;0.10;;;9.80;65.90;;;;;;4993720;28;20497;-83
2024/01/27 12:32:33;;;;;;;0.10;0.10;;;9.70;66.30;;;;;;4983857;28;20046;-80
2024/01/27 12:35:04;;;;;;;0.10;0.10;;;9.80;66.10;;;;;;4997740;28;20033;-78
2024/01/27 12:37:30;;;;;;;0.13;0.13;;;9.90;66.30;;;;;;4993129;28;20038;-77
2024/01/27 12:39:56;;;;;;;0.10;0.10;;;10.00;66.90;;;;;;4991414;28;20116;-79
2024/01/27 12:42:30;;;;;;;0.10;0.10;;;10.10;67.10;;;;;;4993715;28;20038;-79
2024/01/27 12:44:59;;;;;;;0.10;0.10;;;10.20;66.60;;;;;;4997342;28;20034;-78
2024/01/27 12:47:25;;;;;;;0.17;0.17;;;10.20;65.80;;;;;;4997101;28;20034;-77
2024/01/27 12:49:50;;;;;;;0.10;0.10;;;10.20;65.50;;;;;;4993583;28;20646;-76
2024/01/27 12:52:16;;;;;;;0.20;0.20;;;10.30;65.40;;;;;;4995980;28;20037;-76
2024/01/27 12:54:42;;;;;;;0.20;0.20;;;10.30;64.80;;;;;;4993735;28;20033;-76
2024/01/27 12:57:08;;;;;;;0.10;0.10;;;10.40;64.60;;;;;;4990948;28;20062;-76
2024/01/27 12:59:34;;;;;;;0.10;0.10;;;10.50;63.80;;;;;;4995948;28;20034;-77
2024/01/27 13:01:59;;;;;;;0.13;0.13;;;10.50;63.90;;;;;;4992954;28;20509;-78
2024/01/27 13:04:25;;;;;;;0.10;0.10;;;10.50;63.80;;;;;;4992985;28;20449;-77
2024/01/27 13:06:52;;;;;;;0.10;0.10;;;10.60;63.60;;;;;;4993725;28;20030;-77
2024/01/27 13:09:17;;;;;;;0.10;0.10;;;10.50;63.60;;;;;;4994018;28;20560;-77
2024/01/27 13:11:44;;;;;;;0.20;0.20;;;10.50;63.80;;;;;;4992786;28;20022;-78
2024/01/27 13:14:11;;;;;;;0.10;0.10;;;10.40;63.90;;;;;;4993509;28;20034;-81
2024/01/27 13:16:37;;;;;;;0.20;0.20;;;10.40;63.60;;;;;;4997178;28;20513;-79
2024/01/27 13:19:03;;;;;;;0.10;0.10;;;10.40;64.50;;;;;;4989993;28;20101;-77
2024/01/27 13:21:28;;;;;;;0.10;0.10;;;10.50;64.90;;;;;;4996263;28;20026;-78
2024/01/27 13:23:57;;;;;;;0.17;0.17;;;10.50;64.50;;;;;;4991824;28;20018;-82
2024/01/27 13:26:22;;;;;;;0.10;0.10;;;10.50;63.40;;;;;;4986946;28;20030;-78
2024/01/27 13:28:48;;;;;;;0.10;0.10;;;10.40;63.50;;;;;;4993445;28;20560;-78
2024/01/27 13:31:14;;;;;;;0.10;0.10;;;10.30;63.30;;;;;;4990201;28;20064;-77
2024/01/27 13:33:39;;;;;;;0.10;0.10;;;10.30;63.30;;;;;;4990315;28;20518;-77
2024/01/27 13:36:05;;;;;;;0.10;0.10;;;10.20;63.40;;;;;;4992331;28;20065;-77
2024/01/27 13:38:31;;;;;;;0.10;0.10;;;10.30;63.50;;;;;;4985414;28;20080;-76
2024/01/27 13:40:57;;;;;;;0.15;0.15;;;10.30;63.70;;;;;;4988011;28;20030;-76
2024/01/27 13:43:22;;;;;;;0.10;0.10;;;10.30;63.60;;;;;;4993739;28;20025;-77
2024/01/27 13:45:48;;;;;;;0.10;0.10;;;10.30;64.70;;;;;;4989217;28;20051;-77
2024/01/27 13:48:15;;;;;;;0.10;0.10;;;10.30;64.50;;;;;;4990806;28;20526;-77
2024/01/27 13:50:41;;;;;;;0.10;0.10;;;10.40;64.70;;;;;;4989330;28;20026;-77
2024/01/27 13:53:06;;;;;;;0.10;0.10;;;10.50;64.40;;;;;;4997638;28;20029;-77
2024/01/27 13:55:32;;;;;;;0.10;0.10;;;10.50;64.20;;;;;;4993065;28;20026;-76
2024/01/27 13:57:58;;;;;;;0.10;0.10;;;10.60;64.40;;;;;;4992124;28;20030;-77
2024/01/27 14:00:23;;;;;;;0.10;0.10;;;10.60;62.90;;;;;;4992037;28;20039;-77
2024/01/27 14:02:49;;;;;;;0.10;0.10;;;10.70;63.30;;;;;;4994796;28;20045;-77
2024/01/27 14:05:15;;;;;;;0.10;0.10;;;10.60;63.00;;;;;;4991889;28;20125;-78
2024/01/27 14:07:40;;;;;;;0.10;0.10;;;10.60;64.00;;;;;;4989904;28;20508;-78
2024/01/27 14:10:06;;;;;;;0.10;0.10;;;10.60;63.60;;;;;;4998597;28;20121;-77
2024/01/27 14:12:32;;;;;;;0.10;0.10;;;10.60;63.40;;;;;;4995933;28;20498;-78
2024/01/27 14:15:08;;;;;;;0.10;0.10;;;10.50;62.60;;;;;;4991631;28;20030;-77
2024/01/27 14:17:37;;;;;;;0.20;0.20;;;10.50;63.00;;;;;;4991864;28;20041;-78
2024/01/27 14:20:03;;;;;;;0.20;0.20;;;10.50;63.00;;;;;;4995198;28;20398;-78
2024/01/27 14:22:30;;;;;;;0.10;0.10;;;10.50;63.60;;;;;;4984367;28;20929;-78
2024/01/27 14:24:56;;;;;;;0.10;0.10;;;10.50;63.70;;;;;;4999447;28;20542;-78
2024/01/27 14:27:27;;;;;;;0.10;0.10;;;10.50;63.20;;;;;;4989868;28;20120;-78
2024/01/27 14:29:56;;;;;;;0.10;0.10;;;10.50;62.90;;;;;;4995453;28;20039;-78
2024/01/27 14:32:22;;;;;;;0.10;0.10;;;10.50;62.70;;;;;;4990524;28;20050;-77
2024/01/27 14:34:49;;;;;;;0.10;0.10;;;10.50;62.60;;;;;;4995436;28;20046;-78
2024/01/27 14:37:18;;;;;;;0.10;0.10;;;10.60;62.10;;;;;;4992911;28;20379;-76
2024/01/27 14:39:48;;;;;;;0.10;0.10;;;10.60;62.60;;;;;;4993767;28;20098;-79
2024/01/27 14:42:14;;;;;;;0.10;0.10;;;10.60;62.70;;;;;;4986239;28;20035;-80
2024/01/27 14:44:40;;;;;;;0.10;0.10;;;10.60;62.50;;;;;;4987161;28;20034;-79
2024/01/27 14:47:07;;;;;;;0.10;0.10;;;10.70;62.70;;;;;;4991355;28;20690;-81
2024/01/27 14:49:33;;;;;;;0.10;0.10;;;10.80;62.70;;;;;;4997373;28;20035;-79
2024/01/27 14:51:59;;;;;;;0.10;0.10;;;10.70;62.70;;;;;;4994564;28;20026;-81
2024/01/27 14:54:25;;;;;;;0.10;0.10;;;10.70;62.60;;;;;;4992916;28;20042;-81
2024/01/27 14:56:50;;;;;;;0.10;0.10;;;10.70;62.90;;;;;;4990806;28;20027;-80
2024/01/27 14:59:16;;;;;;;0.10;0.10;;;10.70;63.80;;;;;;4989929;28;20045;-79
2024/01/27 15:01:41;;;;;;;0.10;0.10;;;10.70;64.00;;;;;;4985691;28;20026;-79
2024/01/27 15:04:07;;;;;;;0.10;0.10;;;10.70;64.10;;;;;;4993296;28;20410;-79
2024/01/27 15:06:33;;;;;;;0.10;0.10;;;10.70;64.00;;;;;;4997305;28;20060;-79
2024/01/27 15:08:59;;;;;;;0.10;0.10;;;10.70;63.40;;;;;;4997117;28;20094;-79
2024/01/27 15:11:25;;;;;;;0.10;0.10;;;10.70;63.40;;;;;;4996131;28;20019;-79
2024/01/27 15:13:51;;;;;;;0.10;0.10;;;10.70;63.40;;;;;;4995987;28;20069;-79
2024/01/27 15:16:17;;;;;;;0.10;0.10;;;10.70;64.20;;;;;;4991019;28;20041;-79
2024/01/27 15:18:44;;;;;;;0.10;0.10;;;10.70;63.30;;;;;;4997019;28;20034;-79
2024/01/27 15:21:10;;;;;;;0.10;0.10;;;10.70;64.00;;;;;;4996858;28;20033;-79
2024/01/27 15:23:39;;;;;;;0.10;0.10;;;10.60;63.90;;;;;;4994396;28;20057;-79
2024/01/27 15:26:09;;;;;;;0.10;0.10;;;10.60;63.40;;;;;;4998440;28;20398;-79
2024/01/27 15:28:34;;;;;;;0.10;0.10;;;10.60;63.50;;;;;;4996612;28;20121;-79
2024/01/27 15:31:03;;;;;;;0.10;0.10;;;10.50;63.20;;;;;;4991398;28;20065;-79
2024/01/27 15:33:29;;;;;;;0.10;0.10;;;10.60;63.90;;;;;;4995034;28;20391;-79
2024/01/27 15:35:54;;;;;;;0.10;0.10;;;10.60;64.10;;;;;;4997815;28;20033;-80
2024/01/27 15:38:20;;;;;;;0.10;0.10;;;10.50;63.60;;;;;;4996581;28;20049;-79
2024/01/27 15:40:46;;;;;;;0.10;0.10;;;10.50;63.70;;;;;;4995807;28;20085;-79
2024/01/27 15:43:12;;;;;;;0.10;0.10;;;10.50;63.70;;;;;;4997082;28;20022;-79
2024/01/27 15:45:37;;;;;;;0.10;0.10;;;10.50;63.80;;;;;;4993582;28;20058;-78
2024/01/27 15:48:03;;;;;;;0.10;0.10;;;10.40;63.80;;;;;;4996929;28;20022;-80
2024/01/27 15:50:30;;;;;;;0.10;0.10;;;10.30;63.40;;;;;;4997174;28;20034;-85
2024/01/27 15:52:57;;;;;;;0.10;0.10;;;10.30;63.60;;;;;;4982750;28;20030;-82
2024/01/27 15:55:23;;;;;;;0.10;0.10;;;10.20;63.70;;;;;;4977820;28;20037;-83
2024/01/27 15:57:49;;;;;;;0.10;0.10;;;10.20;64.00;;;;;;4993768;28;20038;-82
2024/01/27 16:00:19;;;;;;;0.10;0.10;;;10.20;64.00;;;;;;4997446;28;20030;-80
2024/01/27 16:02:44;;;;;;;0.10;0.10;;;10.10;64.70;;;;;;4995788;28;20018;-79
2024/01/27 16:05:10;;;;;;;0.10;0.10;;;10.10;65.70;;;;;;4998777;28;20033;-80
2024/01/27 16:07:36;;;;;;;0.10;0.10;;;10.00;65.70;;;;;;4998258;28;20030;-79
2024/01/27 16:10:26;;;;;;;0.10;0.10;;;9.80;66.00;;;;;;4995652;28;20026;-90
2024/01/27 16:12:52;;;;;;;0.10;0.10;;;9.80;66.30;;;;;;4994514;28;20062;-82
2024/01/27 16:15:17;;;;;;;0.10;0.10;;;9.80;66.40;;;;;;4994733;28;20037;-80
2024/01/27 16:17:52;;;;;;;0.10;0.10;;;9.70;66.60;;;;;;4994067;28;20121;-89
2024/01/27 16:20:18;;;;;;;0.10;0.10;;;9.70;66.90;;;;;;4996880;28;20030;-82
2024/01/27 16:22:44;;;;;;;0.10;0.10;;;9.60;67.10;;;;;;4985818;28;20019;-83
2024/01/27 16:25:12;;;;;;;0.10;0.10;;;9.50;66.80;;;;;;4997139;28;20045;-83
2024/01/27 16:27:38;;;;;;;0.10;0.10;;;9.50;67.00;;;;;;4994127;28;20033;-82
2024/01/27 16:30:04;;;;;;;0.10;0.10;;;9.40;67.10;;;;;;4995611;28;20022;-82
2024/01/27 16:32:30;;;;;;;0.10;0.10;;;9.40;67.30;;;;;;4995328;28;20061;-82
2024/01/27 16:34:56;;;;;;;0.10;0.10;;;9.40;67.50;;;;;;4996304;28;20038;-82
2024/01/27 16:37:22;;;;;;;0.10;0.10;;;9.30;67.80;;;;;;4995062;28;20049;-83
2024/01/27 16:39:47;;;;;;;0.10;0.10;;;9.30;68.10;;;;;;4996535;28;20030;-86
2024/01/27 16:42:14;;;;;;;0.10;0.10;;;9.20;68.40;;;;;;4987431;28;20095;-82
2024/01/27 16:44:40;;;;;;;0.00;0.00;;;9.20;68.90;;;;;;4995015;28;20035;-83
2024/01/27 16:47:06;;;;;;;0.10;0.10;;;9.20;69.10;;;;;;4995817;28;20022;-83
2024/01/27 16:49:32;;;;;;;0.10;0.10;;;9.10;69.30;;;;;;4996880;28;20018;-82
2024/01/27 16:51:58;;;;;;;0.10;0.10;;;9.10;69.50;;;;;;4994711;28;20073;-77
2024/01/27 16:54:25;;;;;;;0.10;0.10;;;9.00;69.80;;;;;;4988607;28;20027;-77
2024/01/27 16:56:52;;;;;;;0.10;0.10;;;9.00;70.00;;;;;;4990849;28;20053;-78
2024/01/27 16:59:18;;;;;;;0.10;0.10;;;8.90;70.30;;;;;;4996191;28;20018;-76
2024/01/27 17:01:43;;;;;;;0.10;0.10;;;8.90;70.60;;;;;;4991346;28;20026;-78
2024/01/27 17:04:14;;;;;;;0.10;0.10;;;8.80;70.90;;;;;;4992400;28;20030;-76
2024/01/27 17:06:41;;;;;;;0.10;0.10;;;8.80;71.00;;;;;;4993210;28;20022;-83
2024/01/27 17:09:07;;;;;;;0.10;0.10;;;8.70;71.40;;;;;;4994526;28;20034;-76
2024/01/27 17:11:33;;;;;;;0.10;0.10;;;8.70;71.70;;;;;;4986502;28;20041;-76
2024/01/27 17:13:59;;;;;;;0.10;0.10;;;8.70;71.80;;;;;;4986659;28;20026;-79
2024/01/27 17:16:28;;;;;;;0.10;0.10;;;8.70;72.30;;;;;;4986227;28;20042;-78
2024/01/27 17:18:53;;;;;;;0.10;0.10;;;8.60;72.30;;;;;;4993794;28;20034;-79
2024/01/27 17:21:22;;;;;;;0.10;0.10;;;8.60;72.60;;;;;;4993874;28;20030;-78
2024/01/27 17:23:47;;;;;;;0.10;0.10;;;8.60;72.80;;;;;;4994861;28;20022;-76
2024/01/27 17:26:14;;;;;;;0.10;0.10;;;8.50;73.00;;;;;;4994634;28;20026;-78
2024/01/27 17:28:41;;;;;;;0.10;0.10;;;8.50;73.20;;;;;;4989428;28;20109;-80
2024/01/27 17:31:06;;;;;;;0.10;0.10;;;8.40;73.30;;;;;;4993621;28;20046;-78
2024/01/27 17:33:35;;;;;;;0.10;0.10;;;8.40;73.30;;;;;;4992587;28;20025;-85
2024/01/27 17:36:00;;;;;;;0.10;0.10;;;8.40;73.40;;;;;;4991879;28;20034;-81
2024/01/27 17:38:27;;;;;;;0.10;0.10;;;8.40;73.60;;;;;;4990771;28;20039;-78
2024/01/27 17:40:53;;;;;;;0.10;0.10;;;8.30;73.70;;;;;;4989919;28;20018;-78
2024/01/27 17:43:18;;;;;;;0.10;0.10;;;8.30;73.90;;;;;;4995870;28;20196;-76
2024/01/27 17:45:44;;;;;;;0.10;0.10;;;8.30;73.90;;;;;;4995369;28;20026;-77
2024/01/27 17:48:10;;;;;;;0.10;0.10;;;8.20;74.20;;;;;;4995509;28;20030;-78
2024/01/27 17:50:39;;;;;;;0.10;0.10;;;8.20;74.20;;;;;;4988745;28;20034;-82
2024/01/27 17:53:04;;;;;;;0.10;0.10;;;8.20;74.40;;;;;;4993067;28;20041;-82
2024/01/27 17:56:00;;;;;;;0.10;0.10;;;8.20;74.40;;;;;;4992143;28;20027;-79
2024/01/27 17:58:22;;;;;;;0.10;0.10;;;8.10;74.50;;;;;;4991106;28;20547;-78
2024/01/27 18:00:49;;;;;;;0.10;0.10;;;8.10;74.50;;;;;;4991898;28;20018;-78
2024/01/27 18:03:15;;;;;;;0.10;0.10;;;8.10;74.60;;;;;;4992244;28;20038;-79
2024/01/27 18:05:40;;;;;;;0.10;0.10;;;8.10;74.70;;;;;;4991383;28;20026;-79
2024/01/27 18:08:06;;;;;;;0.10;0.10;;;8.10;74.80;;;;;;4990495;28;20026;-80
2024/01/27 18:10:34;;;;;;;0.10;0.10;;;8.10;74.90;;;;;;4993824;28;20025;-89
2024/01/27 18:13:00;;;;;;;0.10;0.10;;;8.10;74.90;;;;;;4993203;28;20033;-87
2024/01/27 18:15:25;;;;;;;0.10;0.10;;;8.00;75.00;;;;;;4990632;28;20542;-84
2024/01/27 18:17:53;;;;;;;0.10;0.10;;;8.00;75.10;;;;;;4993046;28;20048;-82
2024/01/27 18:20:19;;;;;;;0.10;0.10;;;8.00;75.30;;;;;;4986549;28;20064;-84
2024/01/27 18:22:44;;;;;;;0.10;0.10;;;7.90;75.40;;;;;;4924672;28;20047;-86
2024/01/27 18:25:10;;;;;;;0.10;0.10;;;7.90;75.60;;;;;;4913419;28;20040;-77